sensor_id;sensor_type;location;lat;lon;timestamp;pressure;altitude;pressure_sealevel;temperature;humidity
56721;BME280;53183;47.412;18.884;2023-02-28T00:01:14;100277.13;;;-0.03;64.29
56721;BME280;53183;47.412;18.884;2023-02-28T00:03:42;100278.88;;;0.10;63.63
56721;BME280;53183;47.412;18.884;2023-02-28T00:06:09;100280.63;;;0.25;62.60
56721;BME280;53183;47.412;18.884;2023-02-28T00:08:38;100289.28;;;0.13;63.98
56721;BME280;53183;47.412;18.884;2023-02-28T00:11:09;100289.25;;;0.19;63.77
56721;BME280;53183;47.412;18.884;2023-02-28T00:13:40;100289.25;;;0.19;62.79
56721;BME280;53183;47.412;18.884;2023-02-28T00:16:14;100296.19;;;0.16;64.29
56721;BME280;53183;47.412;18.884;2023-02-28T00:18:41;100293.59;;;0.11;64.47
56721;BME280;53183;47.412;18.884;2023-02-28T00:21:09;100299.66;;;0.16;63.20
56721;BME280;53183;47.412;18.884;2023-02-28T00:23:36;100299.69;;;0.27;63.30
56721;BME280;53183;47.412;18.884;2023-02-28T00:26:04;100303.16;;;0.20;64.07
56721;BME280;53183;47.412;18.884;2023-02-28T00:28:31;100302.28;;;0.15;64.30
56721;BME280;53183;47.412;18.884;2023-02-28T00:30:59;100303.12;;;0.23;63.90
56721;BME280;53183;47.412;18.884;2023-02-28T00:33:28;100310.06;;;0.19;64.50
56721;BME280;53183;47.412;18.884;2023-02-28T00:36:06;100308.34;;;0.26;64.22
56721;BME280;53183;47.412;18.884;2023-02-28T00:38:36;100317.91;;;0.38;62.79
56721;BME280;53183;47.412;18.884;2023-02-28T00:41:04;100309.22;;;0.45;61.89
56721;BME280;53183;47.412;18.884;2023-02-28T00:43:33;100311.81;;;0.42;62.82
56721;BME280;53183;47.412;18.884;2023-02-28T00:46:01;100315.28;;;0.39;62.71
56721;BME280;53183;47.412;18.884;2023-02-28T00:48:30;100315.28;;;0.32;62.81
56721;BME280;53183;47.412;18.884;2023-02-28T00:50:57;100323.97;;;0.43;62.88
56721;BME280;53183;47.412;18.884;2023-02-28T00:53:24;100323.94;;;0.46;62.50
56721;BME280;53183;47.412;18.884;2023-02-28T00:55:52;100320.50;;;0.49;61.19
56721;BME280;53183;47.412;18.884;2023-02-28T00:58:19;100325.72;;;0.50;61.98
56721;BME280;53183;47.412;18.884;2023-02-28T01:00:46;100319.63;;;0.40;62.69
56721;BME280;53183;47.412;18.884;2023-02-28T01:03:17;100318.78;;;0.40;62.20
56721;BME280;53183;47.412;18.884;2023-02-28T01:05:45;100320.50;;;0.35;63.26
56721;BME280;53183;47.412;18.884;2023-02-28T01:08:13;100324.81;;;0.31;63.00
56721;BME280;53183;47.412;18.884;2023-02-28T01:10:41;100324.84;;;0.30;63.88
56721;BME280;53183;47.412;18.884;2023-02-28T01:13:08;100317.03;;;0.45;62.77
56721;BME280;53183;47.412;18.884;2023-02-28T01:15:36;100322.22;;;0.53;63.49
56721;BME280;53183;47.412;18.884;2023-02-28T01:18:05;100317.91;;;0.47;63.90
56721;BME280;53183;47.412;18.884;2023-02-28T01:20:32;100317.88;;;0.42;63.07
56721;BME280;53183;47.412;18.884;2023-02-28T01:22:59;100312.69;;;0.38;63.29
56721;BME280;53183;47.412;18.884;2023-02-28T01:25:26;100322.22;;;0.39;63.24
56721;BME280;53183;47.412;18.884;2023-02-28T01:27:54;100322.22;;;0.37;63.50
56721;BME280;53183;47.412;18.884;2023-02-28T01:30:21;100320.50;;;0.38;63.37
56721;BME280;53183;47.412;18.884;2023-02-28T01:32:48;100316.16;;;0.47;62.63
56721;BME280;53183;47.412;18.884;2023-02-28T01:35:18;100317.91;;;0.55;62.31
56721;BME280;53183;47.412;18.884;2023-02-28T01:37:45;100310.09;;;0.55;62.86
56721;BME280;53183;47.412;18.884;2023-02-28T01:40:13;100304.03;;;0.56;63.42
56721;BME280;53183;47.412;18.884;2023-02-28T01:42:41;100312.69;;;0.65;62.77
56721;BME280;53183;47.412;18.884;2023-02-28T01:45:30;100310.09;;;0.58;63.31
56721;BME280;53183;47.412;18.884;2023-02-28T01:48:04;100306.62;;;0.57;62.45
56721;BME280;53183;47.412;18.884;2023-02-28T01:50:36;100319.66;;;0.60;61.85
56721;BME280;53183;47.412;18.884;2023-02-28T01:53:10;100312.72;;;0.59;62.28
56721;BME280;53183;47.412;18.884;2023-02-28T01:55:42;100313.56;;;0.57;61.73
56721;BME280;53183;47.412;18.884;2023-02-28T01:58:12;100316.16;;;0.69;61.15
56721;BME280;53183;47.412;18.884;2023-02-28T02:00:40;100313.56;;;0.70;62.24
56721;BME280;53183;47.412;18.884;2023-02-28T02:03:13;100308.34;;;0.78;60.59
56721;BME280;53183;47.412;18.884;2023-02-28T02:05:43;100305.75;;;0.75;61.03
56721;BME280;53183;47.412;18.884;2023-02-28T02:08:21;100311.81;;;0.62;62.23
56721;BME280;53183;47.412;18.884;2023-02-28T02:10:52;100308.37;;;0.70;59.55
56721;BME280;53183;47.412;18.884;2023-02-28T02:18:52;100306.59;;;0.82;59.57
56721;BME280;53183;47.412;18.884;2023-02-28T02:26:42;100309.22;;;0.68;60.60
56721;BME280;53183;47.412;18.884;2023-02-28T02:29:31;100310.97;;;0.64;62.32
56721;BME280;53183;47.412;18.884;2023-02-28T02:34:54;100309.22;;;0.88;59.41
56721;BME280;53183;47.412;18.884;2023-02-28T02:37:47;100312.69;;;0.84;60.18
56721;BME280;53183;47.412;18.884;2023-02-28T02:40:19;100309.22;;;0.77;61.24
56721;BME280;53183;47.412;18.884;2023-02-28T02:42:51;100301.44;;;0.69;61.04
56721;BME280;53183;47.412;18.884;2023-02-28T02:45:26;100310.94;;;0.72;60.25
56721;BME280;53183;47.412;18.884;2023-02-28T02:47:56;100300.53;;;0.81;60.27
56721;BME280;53183;47.412;18.884;2023-02-28T02:50:38;100307.47;;;0.78;60.82
56721;BME280;53183;47.412;18.884;2023-02-28T02:53:08;100297.09;;;0.76;60.25
56721;BME280;53183;47.412;18.884;2023-02-28T02:55:40;100304.91;;;0.79;60.48
56721;BME280;53183;47.412;18.884;2023-02-28T02:58:13;100299.69;;;0.81;61.48
56721;BME280;53183;47.412;18.884;2023-02-28T03:00:46;100307.47;;;0.68;62.31
56721;BME280;53183;47.412;18.884;2023-02-28T03:03:16;100317.03;;;0.69;61.17
56721;BME280;53183;47.412;18.884;2023-02-28T03:05:49;100311.81;;;0.76;61.92
56721;BME280;53183;47.412;18.884;2023-02-28T03:08:17;100315.28;;;0.82;59.99
56721;BME280;53183;47.412;18.884;2023-02-28T03:10:48;100308.31;;;0.95;59.66
56721;BME280;53183;47.412;18.884;2023-02-28T03:33:06;100316.16;;;0.81;59.67
56721;BME280;53183;47.412;18.884;2023-02-28T03:35:54;100317.91;;;0.70;61.26
56721;BME280;53183;47.412;18.884;2023-02-28T03:41:21;100317.91;;;0.67;61.81
56721;BME280;53183;47.412;18.884;2023-02-28T03:43:54;100316.16;;;0.69;60.70
56721;BME280;53183;47.412;18.884;2023-02-28T03:46:26;100315.31;;;0.73;61.05
56721;BME280;53183;47.412;18.884;2023-02-28T03:49:14;100316.19;;;0.63;61.28
56721;BME280;53183;47.412;18.884;2023-02-28T03:51:45;100319.63;;;0.65;60.75
56721;BME280;53183;47.412;18.884;2023-02-28T03:54:19;100321.38;;;0.58;61.27
56721;BME280;53183;47.412;18.884;2023-02-28T04:00:12;100320.53;;;0.59;61.87
56721;BME280;53183;47.412;18.884;2023-02-28T04:02:41;100317.88;;;0.68;61.20
56721;BME280;53183;47.412;18.884;2023-02-28T04:05:08;100314.44;;;0.57;61.77
56721;BME280;53183;47.412;18.884;2023-02-28T04:07:36;100313.59;;;0.63;61.35
56721;BME280;53183;47.412;18.884;2023-02-28T04:10:04;100312.69;;;0.61;61.40
56721;BME280;53183;47.412;18.884;2023-02-28T04:12:31;100320.50;;;0.65;60.85
56721;BME280;53183;47.412;18.884;2023-02-28T04:14:58;100310.09;;;0.64;61.82
56721;BME280;53183;47.412;18.884;2023-02-28T04:17:26;100311.84;;;0.66;60.94
56721;BME280;53183;47.412;18.884;2023-02-28T04:19:54;100312.69;;;0.68;60.17
56721;BME280;53183;47.412;18.884;2023-02-28T04:22:24;100311.84;;;0.60;61.23
56721;BME280;53183;47.412;18.884;2023-02-28T04:24:54;100307.50;;;0.58;61.49
56721;BME280;53183;47.412;18.884;2023-02-28T04:27:21;100311.84;;;0.60;60.33
56721;BME280;53183;47.412;18.884;2023-02-28T04:29:48;100306.62;;;0.60;61.24
56721;BME280;53183;47.412;18.884;2023-02-28T04:32:16;100306.62;;;0.57;60.50
56721;BME280;53183;47.412;18.884;2023-02-28T04:34:43;100309.25;;;0.57;62.31
56721;BME280;53183;47.412;18.884;2023-02-28T04:37:10;100305.78;;;0.66;60.66
56721;BME280;53183;47.412;18.884;2023-02-28T04:39:41;100304.91;;;0.53;61.33
56721;BME280;53183;47.412;18.884;2023-02-28T04:42:09;100301.44;;;0.57;61.40
56721;BME280;53183;47.412;18.884;2023-02-28T04:44:36;100303.16;;;0.55;61.73
56721;BME280;53183;47.412;18.884;2023-02-28T04:47:04;100311.84;;;0.57;61.67
56721;BME280;53183;47.412;18.884;2023-02-28T04:49:31;100305.78;;;0.57;62.17
56721;BME280;53183;47.412;18.884;2023-02-28T04:51:59;100313.59;;;0.60;61.43
56721;BME280;53183;47.412;18.884;2023-02-28T04:54:26;100310.97;;;0.60;63.06
56721;BME280;53183;47.412;18.884;2023-02-28T04:56:55;100313.56;;;0.61;62.76
56721;BME280;53183;47.412;18.884;2023-02-28T04:59:22;100311.84;;;0.69;62.19
56721;BME280;53183;47.412;18.884;2023-02-28T05:01:49;100310.09;;;0.64;62.88
56721;BME280;53183;47.412;18.884;2023-02-28T05:04:17;100310.09;;;0.50;63.03
56721;BME280;53183;47.412;18.884;2023-02-28T05:06:44;100311.84;;;0.63;62.43
56721;BME280;53183;47.412;18.884;2023-02-28T05:09:12;100311.84;;;0.63;61.92
56721;BME280;53183;47.412;18.884;2023-02-28T05:11:39;100308.34;;;0.52;61.83
56721;BME280;53183;47.412;18.884;2023-02-28T05:14:11;100311.81;;;0.56;61.96
56721;BME280;53183;47.412;18.884;2023-02-28T05:16:39;100310.09;;;0.44;63.38
56721;BME280;53183;47.412;18.884;2023-02-28T05:19:06;100308.37;;;0.47;63.09
56721;BME280;53183;47.412;18.884;2023-02-28T05:21:34;100310.12;;;0.59;61.70
56721;BME280;53183;47.412;18.884;2023-02-28T05:24:08;100311.81;;;0.53;62.60
56721;BME280;53183;47.412;18.884;2023-02-28T05:26:44;100319.63;;;0.65;60.83
56721;BME280;53183;47.412;18.884;2023-02-28T05:29:12;100319.66;;;0.69;61.04
56721;BME280;53183;47.412;18.884;2023-02-28T05:31:39;100329.16;;;0.64;61.65
56721;BME280;53183;47.412;18.884;2023-02-28T05:34:06;100323.12;;;0.67;61.92
56721;BME280;53183;47.412;18.884;2023-02-28T05:36:36;100330.91;;;0.72;61.97
56721;BME280;53183;47.412;18.884;2023-02-28T05:39:06;100329.19;;;0.67;62.55
56721;BME280;53183;47.412;18.884;2023-02-28T05:41:34;100330.06;;;0.63;62.06
56721;BME280;53183;47.412;18.884;2023-02-28T05:44:01;100334.38;;;0.60;61.76
56721;BME280;53183;47.412;18.884;2023-02-28T05:46:28;100338.72;;;0.58;62.00
56721;BME280;53183;47.412;18.884;2023-02-28T05:48:55;100336.09;;;0.68;61.43
56721;BME280;53183;47.412;18.884;2023-02-28T05:51:24;100338.72;;;0.55;62.37
56721;BME280;53183;47.412;18.884;2023-02-28T05:53:51;100344.78;;;0.55;62.71
56721;BME280;53183;47.412;18.884;2023-02-28T05:56:19;100341.31;;;0.55;62.45
56721;BME280;53183;47.412;18.884;2023-02-28T05:58:46;100341.34;;;0.59;61.92
56721;BME280;53183;47.412;18.884;2023-02-28T06:01:34;100346.50;;;0.72;62.58
56721;BME280;53183;47.412;18.884;2023-02-28T06:04:04;100344.78;;;0.78;62.19
56721;BME280;53183;47.412;18.884;2023-02-28T06:06:32;100337.84;;;0.92;61.69
56721;BME280;53183;47.412;18.884;2023-02-28T06:09:06;100333.47;;;1.01;61.07
56721;BME280;53183;47.412;18.884;2023-02-28T06:11:33;100340.44;;;1.03;60.93
56721;BME280;53183;47.412;18.884;2023-02-28T06:14:01;100333.47;;;1.07;60.67
56721;BME280;53183;47.412;18.884;2023-02-28T06:16:31;100344.78;;;1.00;61.11
56721;BME280;53183;47.412;18.884;2023-02-28T06:19:01;100339.56;;;1.01;61.56
56721;BME280;53183;47.412;18.884;2023-02-28T06:21:28;100339.56;;;1.06;61.07
56721;BME280;53183;47.412;18.884;2023-02-28T06:23:57;100346.50;;;1.01;61.83
56721;BME280;53183;47.412;18.884;2023-02-28T06:26:25;100348.25;;;1.00;61.49
56721;BME280;53183;47.412;18.884;2023-02-28T06:28:53;100345.63;;;1.19;59.75
56721;BME280;53183;47.412;18.884;2023-02-28T06:31:21;100350.78;;;1.25;59.88
56721;BME280;53183;47.412;18.884;2023-02-28T06:33:49;100351.66;;;1.24;60.41
56721;BME280;53183;47.412;18.884;2023-02-28T06:36:16;100351.66;;;1.33;60.04
56721;BME280;53183;47.412;18.884;2023-02-28T06:38:44;100360.31;;;1.35;59.76
56721;BME280;53183;47.412;18.884;2023-02-28T06:41:11;100363.78;;;1.34;59.38
56721;BME280;53183;47.412;18.884;2023-02-28T06:43:41;100362.03;;;1.37;59.47
56721;BME280;53183;47.412;18.884;2023-02-28T06:46:12;100362.91;;;1.46;59.17
56721;BME280;53183;47.412;18.884;2023-02-28T06:48:43;100365.53;;;1.36;60.06
56721;BME280;53183;47.412;18.884;2023-02-28T06:51:13;100365.50;;;1.38;59.84
56721;BME280;53183;47.412;18.884;2023-02-28T06:53:41;100363.78;;;1.46;59.78
56721;BME280;53183;47.412;18.884;2023-02-28T06:56:14;100361.97;;;1.60;58.15
56721;BME280;53183;47.412;18.884;2023-02-28T06:58:46;100369.81;;;1.59;57.97
56721;BME280;53183;47.412;18.884;2023-02-28T07:01:14;100366.28;;;1.68;58.73
56721;BME280;53183;47.412;18.884;2023-02-28T07:03:42;100365.34;;;1.92;57.82
56721;BME280;53183;47.412;18.884;2023-02-28T07:06:09;100365.38;;;1.81;57.83
56721;BME280;53183;47.412;18.884;2023-02-28T07:08:37;100375.75;;;1.90;57.60
56721;BME280;53183;47.412;18.884;2023-02-28T07:11:05;100375.75;;;1.95;57.17
56721;BME280;53183;47.412;18.884;2023-02-28T07:13:32;100376.50;;;2.20;57.45
56721;BME280;53183;47.412;18.884;2023-02-28T07:16:01;100377.22;;;2.43;58.08
56721;BME280;53183;47.412;18.884;2023-02-28T07:18:29;100380.41;;;2.82;56.17
56721;BME280;53183;47.412;18.884;2023-02-28T07:20:57;100385.47;;;3.03;53.73
56721;BME280;53183;47.412;18.884;2023-02-28T07:23:25;100384.56;;;3.08;54.50
56721;BME280;53183;47.412;18.884;2023-02-28T07:25:52;100385.34;;;3.16;52.53
56721;BME280;53183;47.412;18.884;2023-02-28T07:28:19;100387.66;;;3.49;51.66
56721;BME280;53183;47.412;18.884;2023-02-28T07:30:46;100384.75;;;3.74;51.29
56721;BME280;53183;47.412;18.884;2023-02-28T07:33:15;100383.63;;;3.96;49.46
56721;BME280;53183;47.412;18.884;2023-02-28T07:35:42;100386.84;;;4.77;47.61
56721;BME280;53183;47.412;18.884;2023-02-28T07:38:10;100385.28;;;5.16;46.96
56721;BME280;53183;47.412;18.884;2023-02-28T07:40:37;100390.38;;;5.26;46.57
56721;BME280;53183;47.412;18.884;2023-02-28T07:43:04;100395.69;;;5.69;45.64
56721;BME280;53183;47.412;18.884;2023-02-28T07:45:32;100389.66;;;6.12;43.93
56721;BME280;53183;47.412;18.884;2023-02-28T07:48:01;100389.81;;;6.43;43.21
56721;BME280;53183;47.412;18.884;2023-02-28T07:50:30;100387.41;;;5.91;44.14
56721;BME280;53183;47.412;18.884;2023-02-28T07:52:59;100396.37;;;5.79;44.61
56721;BME280;53183;47.412;18.884;2023-02-28T07:55:26;100398.09;;;5.81;44.68
56721;BME280;53183;47.412;18.884;2023-02-28T07:57:54;100396.81;;;5.57;44.59
56721;BME280;53183;47.412;18.884;2023-02-28T08:00:21;100401.38;;;5.46;44.81
56721;BME280;53183;47.412;18.884;2023-02-28T08:02:49;100394.75;;;5.27;45.04
56721;BME280;53183;47.412;18.884;2023-02-28T08:05:16;100399.50;;;5.03;44.84
56721;BME280;53183;47.412;18.884;2023-02-28T08:07:49;100398.44;;;5.15;45.04
56721;BME280;53183;47.412;18.884;2023-02-28T08:10:17;100392.53;;;5.02;44.83
56721;BME280;53183;47.412;18.884;2023-02-28T08:12:44;100381.53;;;4.82;45.11
56721;BME280;53183;47.412;18.884;2023-02-28T08:15:11;100392.38;;;5.11;45.38
56721;BME280;53183;47.412;18.884;2023-02-28T08:17:39;100385.63;;;5.46;44.39
56721;BME280;53183;47.412;18.884;2023-02-28T08:20:07;100386.50;;;5.48;44.98
56721;BME280;53183;47.412;18.884;2023-02-28T08:22:34;100389.16;;;4.97;48.37
56721;BME280;53183;47.412;18.884;2023-02-28T08:25:02;100392.53;;;5.02;48.53
56721;BME280;53183;47.412;18.884;2023-02-28T08:27:29;100388.00;;;5.12;46.94
56721;BME280;53183;47.412;18.884;2023-02-28T08:29:56;100390.66;;;5.10;47.44
56721;BME280;53183;47.412;18.884;2023-02-28T08:32:23;100393.44;;;4.44;47.84
56721;BME280;53183;47.412;18.884;2023-02-28T08:34:56;100392.78;;;4.30;50.89
56721;BME280;53183;47.412;18.884;2023-02-28T08:37:24;100387.19;;;3.89;50.62
56721;BME280;53183;47.412;18.884;2023-02-28T08:39:51;100388.97;;;3.86;50.90
56721;BME280;53183;47.412;18.884;2023-02-28T08:42:23;100400.34;;;3.83;50.05
56721;BME280;53183;47.412;18.884;2023-02-28T08:44:50;100395.34;;;3.62;50.54
56721;BME280;53183;47.412;18.884;2023-02-28T08:47:18;100390.81;;;3.78;49.90
56721;BME280;53183;47.412;18.884;2023-02-28T08:49:45;100387.16;;;3.92;49.49
56721;BME280;53183;47.412;18.884;2023-02-28T08:52:13;100387.75;;;4.13;49.30
56721;BME280;53183;47.412;18.884;2023-02-28T08:54:40;100387.06;;;4.00;50.36
56721;BME280;53183;47.412;18.884;2023-02-28T08:57:07;100385.56;;;3.78;50.65
56721;BME280;53183;47.412;18.884;2023-02-28T08:59:35;100384.50;;;3.94;51.83
56721;BME280;53183;47.412;18.884;2023-02-28T09:02:02;100386.16;;;4.03;51.04
56721;BME280;53183;47.412;18.884;2023-02-28T09:04:29;100387.81;;;4.10;50.80
56721;BME280;53183;47.412;18.884;2023-02-28T09:06:58;100391.25;;;4.15;51.52
56721;BME280;53183;47.412;18.884;2023-02-28T09:09:25;100391.12;;;4.21;51.31
56721;BME280;53183;47.412;18.884;2023-02-28T09:11:55;100393.75;;;4.22;51.29
56721;BME280;53183;47.412;18.884;2023-02-28T09:14:22;100393.72;;;4.24;51.79
56721;BME280;53183;47.412;18.884;2023-02-28T09:16:50;100385.69;;;4.38;51.13
56721;BME280;53183;47.412;18.884;2023-02-28T09:19:17;100387.16;;;4.56;49.63
56721;BME280;53183;47.412;18.884;2023-02-28T09:21:44;100386.72;;;4.85;50.68
56721;BME280;53183;47.412;18.884;2023-02-28T09:24:11;100384.38;;;5.21;48.86
56721;BME280;53183;47.412;18.884;2023-02-28T09:26:41;100383.28;;;5.32;47.89
56721;BME280;53183;47.412;18.884;2023-02-28T09:29:21;100380.75;;;5.26;47.63
56721;BME280;53183;47.412;18.884;2023-02-28T09:31:49;100383.91;;;5.47;46.66
56721;BME280;53183;47.412;18.884;2023-02-28T09:34:16;100382.69;;;5.64;48.31
56721;BME280;53183;47.412;18.884;2023-02-28T09:36:44;100389.69;;;5.62;46.74
56721;BME280;53183;47.412;18.884;2023-02-28T09:39:13;100396.37;;;5.79;47.82
56721;BME280;53183;47.412;18.884;2023-02-28T09:41:48;100393.00;;;5.74;47.16
56721;BME280;53183;47.412;18.884;2023-02-28T09:44:39;100391.44;;;6.08;46.24
56721;BME280;53183;47.412;18.884;2023-02-28T09:49:43;100396.59;;;6.53;45.27
56721;BME280;53183;47.412;18.884;2023-02-28T09:52:28;100390.25;;;6.23;44.87
56721;BME280;53183;47.412;18.884;2023-02-28T09:58:21;100381.91;;;6.06;46.03
56721;BME280;53183;47.412;18.884;2023-02-28T10:00:59;100386.06;;;6.15;45.58
56721;BME280;53183;47.412;18.884;2023-02-28T10:03:40;100380.69;;;6.21;47.95
56721;BME280;53183;47.412;18.884;2023-02-28T10:06:20;100390.25;;;6.23;48.24
56721;BME280;53183;47.412;18.884;2023-02-28T10:11:22;100372.56;;;6.31;47.44
56721;BME280;53183;47.412;18.884;2023-02-28T10:13:52;100373.41;;;6.35;46.02
56721;BME280;53183;47.412;18.884;2023-02-28T10:18:58;100371.12;;;6.18;46.22
56721;BME280;53183;47.412;18.884;2023-02-28T10:21:35;100370.44;;;6.10;45.85
56721;BME280;53183;47.412;18.884;2023-02-28T10:26:41;100365.66;;;6.29;46.73
56721;BME280;53183;47.412;18.884;2023-02-28T10:29:11;100368.56;;;6.54;47.35
56721;BME280;53183;47.412;18.884;2023-02-28T10:31:39;100363.19;;;6.60;48.33
56721;BME280;53183;47.412;18.884;2023-02-28T10:34:07;100377.97;;;6.64;47.53
56721;BME280;53183;47.412;18.884;2023-02-28T10:36:39;100376.69;;;6.43;47.04
56721;BME280;53183;47.412;18.884;2023-02-28T10:42:27;100364.81;;;6.66;46.83
56721;BME280;53183;47.412;18.884;2023-02-28T10:45:15;100359.91;;;6.50;47.35
56721;BME280;53183;47.412;18.884;2023-02-28T10:47:56;100349.91;;;6.27;46.64
56721;BME280;53183;47.412;18.884;2023-02-28T10:52:54;100355.72;;;6.01;48.21
56721;BME280;53183;47.412;18.884;2023-02-28T10:55:25;100350.06;;;6.21;47.32
56721;BME280;53183;47.412;18.884;2023-02-28T10:57:52;100347.16;;;6.33;47.96
56721;BME280;53183;47.412;18.884;2023-02-28T11:00:25;100353.31;;;6.32;48.44
56721;BME280;53183;47.412;18.884;2023-02-28T11:02:58;100354.69;;;6.49;47.70
56721;BME280;53183;47.412;18.884;2023-02-28T11:05:32;100342.06;;;6.65;46.55
56721;BME280;53183;47.412;18.884;2023-02-28T11:08:06;100344.09;;;6.89;47.86
56721;BME280;53183;47.412;18.884;2023-02-28T11:10:38;100343.81;;;7.00;45.97
56721;BME280;53183;47.412;18.884;2023-02-28T11:13:05;100346.00;;;7.17;45.92
56721;BME280;53183;47.412;18.884;2023-02-28T11:15:33;100339.31;;;7.38;45.62
56721;BME280;53183;47.412;18.884;2023-02-28T11:20:38;100334.03;;;7.70;46.88
56721;BME280;53183;47.412;18.884;2023-02-28T11:23:12;100340.94;;;8.04;44.57
56721;BME280;53183;47.412;18.884;2023-02-28T11:25:50;100335.72;;;8.03;46.14
56721;BME280;53183;47.412;18.884;2023-02-28T11:33:54;100326.78;;;8.08;44.76
56721;BME280;53183;47.412;18.884;2023-02-28T11:36:27;100330.69;;;7.95;45.36
56721;BME280;53183;47.412;18.884;2023-02-28T11:38:59;100334.97;;;7.68;44.96
56721;BME280;53183;47.412;18.884;2023-02-28T11:41:36;100326.66;;;7.52;45.36
56721;BME280;53183;47.412;18.884;2023-02-28T11:44:22;100329.59;;;7.40;46.25
56721;BME280;53183;47.412;18.884;2023-02-28T11:47:24;100325.63;;;7.58;45.96
56721;BME280;53183;47.412;18.884;2023-02-28T11:50:27;100322.75;;;7.67;45.42
56721;BME280;53183;47.412;18.884;2023-02-28T11:53:01;100317.50;;;7.65;45.93
56721;BME280;53183;47.412;18.884;2023-02-28T11:55:36;100311.56;;;8.18;44.29
56721;BME280;53183;47.412;18.884;2023-02-28T12:01:06;100306.38;;;7.87;44.75
56721;BME280;53183;47.412;18.884;2023-02-28T12:04:03;100304.81;;;7.80;44.25
56721;BME280;53183;47.412;18.884;2023-02-28T12:06:48;100301.47;;;7.74;44.14
56721;BME280;53183;47.412;18.884;2023-02-28T12:23:19;100294.50;;;7.10;45.88
56721;BME280;53183;47.412;18.884;2023-02-28T12:25:48;100288.91;;;6.89;46.82
56721;BME280;53183;47.412;18.884;2023-02-28T12:28:21;100284.34;;;6.96;46.11
56721;BME280;53183;47.412;18.884;2023-02-28T12:30:59;100287.47;;;7.10;46.74
56721;BME280;53183;47.412;18.884;2023-02-28T12:33:33;100278.44;;;7.20;45.43
56721;BME280;53183;47.412;18.884;2023-02-28T12:36:05;100278.94;;;7.02;45.80
56721;BME280;53183;47.412;18.884;2023-02-28T12:41:19;100270.59;;;7.19;47.66
56721;BME280;53183;47.412;18.884;2023-02-28T12:44:16;100265.50;;;7.13;46.25
56721;BME280;53183;47.412;18.884;2023-02-28T12:46:44;100266.53;;;7.07;46.97
56721;BME280;53183;47.412;18.884;2023-02-28T12:49:30;100266.88;;;6.95;47.30
56721;BME280;53183;47.412;18.884;2023-02-28T12:52:01;100273.53;;;7.08;47.01
56721;BME280;53183;47.412;18.884;2023-02-28T12:54:52;100262.41;;;6.98;47.35
56721;BME280;53183;47.412;18.884;2023-02-28T12:57:52;100260.22;;;7.14;46.78
56721;BME280;53183;47.412;18.884;2023-02-28T13:00:29;100257.50;;;7.17;48.05
56721;BME280;53183;47.412;18.884;2023-02-28T13:08:50;100254.06;;;7.15;46.18
56721;BME280;53183;47.412;18.884;2023-02-28T13:11:39;100254.13;;;7.12;46.72
56721;BME280;53183;47.412;18.884;2023-02-28T13:19:29;100242.84;;;7.69;47.41
56721;BME280;53183;47.412;18.884;2023-02-28T13:21:58;100236.78;;;7.67;45.87
56721;BME280;53183;47.412;18.884;2023-02-28T13:24:42;100247.03;;;7.47;46.58
56721;BME280;53183;47.412;18.884;2023-02-28T13:29:39;100247.66;;;7.85;45.47
56721;BME280;53183;47.412;18.884;2023-02-28T13:35:34;100243.16;;;7.29;46.61
56721;BME280;53183;47.412;18.884;2023-02-28T13:39:58;100232.72;;;6.95;47.76
56721;BME280;53183;47.412;18.884;2023-02-28T13:47:48;100235.97;;;6.70;47.94
56721;BME280;53183;47.412;18.884;2023-02-28T13:50:23;100240.03;;;6.49;48.86
56721;BME280;53183;47.412;18.884;2023-02-28T13:56:05;100232.28;;;6.77;48.08
56721;BME280;53183;47.412;18.884;2023-02-28T14:01:45;100230.56;;;6.76;48.96
56721;BME280;53183;47.412;18.884;2023-02-28T14:07:18;100228.69;;;6.81;49.21
56721;BME280;53183;47.412;18.884;2023-02-28T14:09:54;100228.06;;;6.72;49.92
56721;BME280;53183;47.412;18.884;2023-02-28T14:12:57;100222.69;;;6.76;48.70
56721;BME280;53183;47.412;18.884;2023-02-28T14:15:36;100224.16;;;6.87;48.44
56721;BME280;53183;47.412;18.884;2023-02-28T14:18:27;100221.19;;;6.66;48.94
56721;BME280;53183;47.412;18.884;2023-02-28T14:21:24;100221.91;;;6.73;49.65
56721;BME280;53183;47.412;18.884;2023-02-28T14:24:10;100212.16;;;6.78;49.42
56721;BME280;53183;47.412;18.884;2023-02-28T14:27:05;100214.88;;;6.73;49.42
56721;BME280;53183;47.412;18.884;2023-02-28T14:37:53;100214.81;;;6.76;50.44
56721;BME280;53183;47.412;18.884;2023-02-28T14:40:28;100211.97;;;6.84;50.27
56721;BME280;53183;47.412;18.884;2023-02-28T14:42:59;100208.53;;;6.82;49.97
56721;BME280;53183;47.412;18.884;2023-02-28T14:45:30;100205.00;;;6.83;49.68
56721;BME280;53183;47.412;18.884;2023-02-28T14:47:58;100201.34;;;6.89;49.83
56721;BME280;53183;47.412;18.884;2023-02-28T14:50:31;100203.13;;;6.87;49.69
56721;BME280;53183;47.412;18.884;2023-02-28T14:52:58;100209.63;;;6.73;51.13
56721;BME280;53183;47.412;18.884;2023-02-28T14:55:28;100214.34;;;6.61;50.35
56721;BME280;53183;47.412;18.884;2023-02-28T14:58:02;100216.66;;;6.39;50.47
56721;BME280;53183;47.412;18.884;2023-02-28T15:00:35;100212.44;;;6.31;52.09
56721;BME280;53183;47.412;18.884;2023-02-28T15:06:02;100217.44;;;6.42;52.07
56721;BME280;53183;47.412;18.884;2023-02-28T15:08:30;100214.06;;;6.37;52.61
56721;BME280;53183;47.412;18.884;2023-02-28T15:11:05;100215.75;;;6.40;51.70
56721;BME280;53183;47.412;18.884;2023-02-28T15:16:57;100218.81;;;6.21;52.21
56721;BME280;53183;47.412;18.884;2023-02-28T15:19:28;100220.63;;;6.19;52.01
56721;BME280;53183;47.412;18.884;2023-02-28T15:21:58;100216.25;;;6.20;53.12
56721;BME280;53183;47.412;18.884;2023-02-28T15:27:14;100215.47;;;6.16;51.62
56721;BME280;53183;47.412;18.884;2023-02-28T15:29:50;100220.34;;;5.94;53.09